Frances, Washington
Current Conditions -  °F | °C
As of 10:53 PM on Thursday 18 Dec 2014 (Local Time) from KHQM Reporting Station
Scattered Clouds Scattered Clouds  
Wind Chill: 50°   Ceiling: Unl
Heat Index: 50°   Visibility: 8mi
Dew Point: 47°   Wind: 10mph
Humidity: 89%   Direction: 140°SE
Pressure: 29.74"   Gusts: NA
Location:  46.6563°N, 123.58°W
Report Text: KHQM 190653Z AUTO 14009KT 8SM FEW047 SCT060 SCT080 10/08 A2974 RMK AO2 RAE02B22E32 SLP074 P0000 T01000083
Loading
Personal Weather Stations






























Interactive Weather Map New forecast layout! Learn more

10-Day Weather Forecast

Advertisements
Track Severe Weather on mobile